Time;durP1;ratioP1;P1;durP2;ratioP2;P2;SDS_P1;SDS_P2;PMS_P1;PMS_P2;Temp;Humidity;BMP_temperature;BMP_pressure;BME280_temperature;BME280_humidity;BME280_pressure;Samples;Min_cycle;Max_cycle;Signal;HPM_P1;HPM_P2
2023/09/09 00:01:08;;;;;;;0.70;0.15;;;;;;;21.00;70.19;100931.81;4986441;28;20037;-71
2023/09/09 00:03:34;;;;;;;1.33;0.20;;;;;;;21.26;69.11;100915.19;4986772;28;20050;-70
2023/09/09 00:06:09;;;;;;;0.50;0.10;;;;;;;21.13;68.96;100921.25;4987454;28;20149;-69
2023/09/09 00:08:34;;;;;;;0.20;0.10;;;;;;;21.08;69.33;100926.34;4986402;28;20038;-70
2023/09/09 00:11:00;;;;;;;0.30;0.10;;;;;;;20.96;70.85;100917.34;4985724;28;20502;-70
2023/09/09 00:13:25;;;;;;;0.30;0.10;;;;;;;20.74;71.98;100915.91;4982641;28;20041;-70
2023/09/09 00:15:54;;;;;;;1.27;0.10;;;;;;;20.54;71.50;100918.47;4988566;28;20117;-70
2023/09/09 00:18:20;;;;;;;0.20;0.10;;;;;;;20.77;71.37;100915.50;4985161;28;20120;-70
2023/09/09 00:20:45;;;;;;;0.35;0.20;;;;;;;20.68;72.24;100927.28;4987621;28;20546;-70
2023/09/09 00:23:12;;;;;;;0.30;0.10;;;;;;;20.78;70.98;100915.31;4982298;28;20141;-70
2023/09/09 00:25:39;;;;;;;0.32;0.10;;;;;;;20.93;70.12;100917.75;4987912;28;20038;-70
2023/09/09 00:28:07;;;;;;;0.22;0.10;;;;;;;20.97;69.21;100918.16;4983322;28;20440;-70
2023/09/09 00:30:33;;;;;;;0.50;0.10;;;;;;;21.19;68.86;100909.03;4989113;28;20476;-70
2023/09/09 00:32:59;;;;;;;1.10;0.30;;;;;;;21.09;70.10;100916.56;4988798;28;20042;-70
2023/09/09 00:35:26;;;;;;;0.25;0.10;;;;;;;20.84;71.01;100903.88;4983035;28;20097;-70
2023/09/09 00:37:52;;;;;;;0.43;0.10;;;;;;;20.60;71.88;100915.03;4983560;28;20379;-70
2023/09/09 00:40:17;;;;;;;0.30;0.10;;;;;;;20.53;71.72;100899.13;4988110;28;20041;-70
2023/09/09 00:42:43;;;;;;;0.30;0.10;;;;;;;20.40;72.55;100919.44;4989672;28;20125;-70
2023/09/09 00:45:08;;;;;;;0.35;0.10;;;;;;;20.55;71.07;100912.16;4989677;28;20096;-69
2023/09/09 00:47:34;;;;;;;0.30;0.10;;;;;;;21.05;68.96;100904.72;4987755;28;20037;-70
2023/09/09 00:50:00;;;;;;;0.20;0.10;;;;;;;21.08;69.11;100906.97;4989242;28;20534;-70
2023/09/09 00:52:26;;;;;;;0.82;0.10;;;;;;;21.01;68.58;100908.81;4986109;28;20567;-70
2023/09/09 00:54:52;;;;;;;0.40;0.15;;;;;;;20.94;69.18;100905.31;4984304;28;20029;-70
2023/09/09 00:57:18;;;;;;;0.30;0.10;;;;;;;20.74;70.70;100898.19;4988919;28;20065;-70
2023/09/09 00:59:44;;;;;;;0.55;0.10;;;;;;;20.65;70.24;100911.78;4988257;28;20062;-70
2023/09/09 01:02:10;;;;;;;0.20;0.10;;;;;;;20.61;69.81;100906.06;4986753;28;20825;-70
2023/09/09 01:04:35;;;;;;;0.10;0.00;;;;;;;20.54;71.35;100905.25;4982562;28;25256;-70
2023/09/09 01:07:02;;;;;;;0.47;0.10;;;;;;;20.30;73.21;100906.56;4980296;28;20049;-70
2023/09/09 01:09:29;;;;;;;0.65;0.10;;;;;;;19.97;74.64;100908.22;4986011;28;20042;-70
2023/09/09 01:11:55;;;;;;;0.30;0.13;;;;;;;19.65;76.11;100904.38;4986278;28;20034;-71
2023/09/09 01:14:20;;;;;;;1.95;0.10;;;;;;;19.52;76.00;100899.78;4985526;28;20037;-71
2023/09/09 01:16:50;;;;;;;0.20;0.10;;;;;;;19.46;76.70;100908.47;4986344;28;20026;-70
2023/09/09 01:19:18;;;;;;;0.30;0.10;;;;;;;19.44;76.74;100907.84;4985309;28;20038;-70
2023/09/09 01:21:45;;;;;;;0.30;0.10;;;;;;;19.50;75.23;100905.25;4990641;28;20400;-70
2023/09/09 01:24:15;;;;;;;0.30;0.10;;;;;;;19.79;73.24;100906.09;4988250;28;20048;-70
2023/09/09 01:26:45;;;;;;;0.70;0.10;;;;;;;20.05;72.09;100905.41;4987914;28;20030;-70
2023/09/09 01:29:10;;;;;;;0.30;0.10;;;;;;;20.08;72.33;100905.84;4981720;28;20050;-70
2023/09/09 01:31:36;;;;;;;0.30;0.10;;;;;;;20.09;72.15;100909.31;4980982;28;20069;-70
2023/09/09 01:34:01;;;;;;;0.20;0.08;;;;;;;19.97;73.48;100906.38;4983518;28;20042;-70
2023/09/09 01:36:27;;;;;;;0.30;0.10;;;;;;;19.64;75.82;100913.31;4987014;28;20050;-70
2023/09/09 01:38:52;;;;;;;0.50;0.08;;;;;;;19.23;76.64;100906.88;4981942;28;20042;-70
2023/09/09 01:41:18;;;;;;;0.30;0.10;;;;;;;19.17;76.36;100906.81;4986176;28;20023;-70
2023/09/09 01:43:43;;;;;;;0.45;0.10;;;;;;;19.16;77.44;100905.19;4981487;28;20031;-70
2023/09/09 01:46:09;;;;;;;0.20;0.10;;;;;;;19.11;77.22;100904.94;4989682;28;20033;-70
2023/09/09 01:48:35;;;;;;;0.20;0.10;;;;;;;19.03;77.26;100907.69;4982400;28;20100;-70
2023/09/09 01:51:01;;;;;;;0.40;0.10;;;;;;;19.02;77.13;100903.41;4985433;28;20081;-70
2023/09/09 01:53:26;;;;;;;0.55;0.10;;;;;;;18.97;77.34;100903.97;4985068;28;20042;-70
2023/09/09 01:55:52;;;;;;;1.80;0.20;;;;;;;19.00;77.18;100905.44;4985433;28;20089;-70
2023/09/09 01:58:17;;;;;;;0.25;0.10;;;;;;;19.00;76.41;100900.16;4986762;28;20038;-70
2023/09/09 02:00:42;;;;;;;0.20;0.05;;;;;;;19.16;75.05;100894.63;4983916;28;20117;-70
2023/09/09 02:03:08;;;;;;;0.15;0.08;;;;;;;19.37;74.37;100901.72;4988359;28;20026;-69
2023/09/09 02:05:34;;;;;;;0.40;0.10;;;;;;;19.40;74.21;100896.81;4981296;28;20026;-70
2023/09/09 02:07:59;;;;;;;0.22;0.10;;;;;;;19.38;74.79;100896.19;4980525;28;20042;-70
2023/09/09 02:10:25;;;;;;;0.70;0.10;;;;;;;19.48;73.20;100894.06;4981354;28;20440;-69
2023/09/09 02:12:50;;;;;;;0.20;0.10;;;;;;;19.54;73.35;100898.59;4985080;28;20904;-69
2023/09/09 02:15:16;;;;;;;1.40;0.10;;;;;;;19.40;74.72;100896.00;4988850;28;20041;-70
2023/09/09 02:17:42;;;;;;;0.60;0.10;;;;;;;19.18;76.16;100906.63;4983062;28;20057;-70
2023/09/09 02:20:08;;;;;;;0.60;0.10;;;;;;;19.01;77.25;100899.13;4986000;28;20043;-69
2023/09/09 02:22:33;;;;;;;0.68;0.10;;;;;;;18.90;78.14;100903.91;4982570;28;20050;-70
2023/09/09 02:24:59;;;;;;;0.40;0.10;;;;;;;18.82;78.87;100904.06;4982430;28;20038;-69
2023/09/09 02:27:24;;;;;;;0.20;0.03;;;;;;;18.77;78.64;100902.97;4984868;28;20038;-69
2023/09/09 02:29:50;;;;;;;0.40;0.10;;;;;;;18.72;79.11;100908.81;4989374;28;20475;-69
2023/09/09 02:32:17;;;;;;;1.30;0.10;;;;;;;18.57;80.05;100905.38;4987845;28;20116;-69
2023/09/09 02:34:42;;;;;;;0.85;0.20;;;;;;;18.38;81.05;100898.06;4989071;28;20042;-69
2023/09/09 02:37:16;;;;;;;0.30;0.10;;;;;;;18.23;82.12;100898.06;4988914;28;20511;-69
2023/09/09 02:39:43;;;;;;;0.10;0.10;;;;;;;18.17;82.42;100898.81;4988698;28;20064;-69
2023/09/09 02:42:11;;;;;;;0.50;0.13;;;;;;;18.29;81.13;100909.72;4987398;28;20122;-69
2023/09/09 02:44:37;;;;;;;0.43;0.10;;;;;;;18.36;80.53;100906.16;4988828;28;20083;-69
2023/09/09 02:47:02;;;;;;;0.22;0.05;;;;;;;18.35;80.77;100907.16;4986365;28;20045;-69
2023/09/09 02:49:28;;;;;;;0.35;0.10;;;;;;;18.32;80.77;100910.16;4990324;28;20038;-69
2023/09/09 02:51:53;;;;;;;0.30;0.10;;;;;;;18.23;81.33;100917.34;4981097;28;20096;-69
2023/09/09 02:54:19;;;;;;;0.20;0.00;;;;;;;18.17;82.03;100904.91;4989707;28;20387;-70
2023/09/09 02:56:44;;;;;;;0.25;0.17;;;;;;;18.20;81.59;100907.16;4990720;28;20383;-70
2023/09/09 02:59:09;;;;;;;0.20;0.10;;;;;;;18.06;83.26;100912.44;4982561;28;20475;-69
2023/09/09 03:01:35;;;;;;;1.38;0.10;;;;;;;17.99;82.89;100911.53;4991127;28;23753;-69
2023/09/09 03:04:00;;;;;;;0.43;0.10;;;;;;;17.97;82.92;100911.72;4989681;28;20049;-69
2023/09/09 03:06:26;;;;;;;2.05;0.10;;;;;;;17.98;82.93;100910.72;4989314;28;20034;-69
2023/09/09 03:08:51;;;;;;;0.30;0.10;;;;;;;18.08;82.79;100907.81;4987735;28;20033;-69
2023/09/09 03:11:16;;;;;;;0.30;0.13;;;;;;;18.15;81.78;100912.16;4989651;28;20488;-69
2023/09/09 03:13:42;;;;;;;0.20;0.10;;;;;;;18.13;82.21;100910.72;4990332;28;20060;-70
2023/09/09 03:16:08;;;;;;;0.50;0.10;;;;;;;17.98;82.53;100904.63;4992937;28;20164;-69
2023/09/09 03:18:33;;;;;;;1.13;0.20;;;;;;;17.85;83.44;100897.38;4987923;28;20034;-69
2023/09/09 03:20:59;;;;;;;0.43;0.10;;;;;;;17.73;84.72;100906.72;4985386;28;20492;-69
2023/09/09 03:23:24;;;;;;;0.22;0.10;;;;;;;17.52;84.97;100902.91;4985588;28;20487;-69
2023/09/09 03:25:50;;;;;;;0.55;0.10;;;;;;;17.49;85.30;100892.72;4987498;28;20034;-69
2023/09/09 03:28:16;;;;;;;0.10;0.08;;;;;;;17.47;86.09;100886.03;4983735;28;20042;-70
2023/09/09 03:30:58;;;;;;;0.20;0.10;;;;;;;17.63;85.72;100893.75;4989856;28;20407;-69
2023/09/09 03:33:24;;;;;;;0.95;0.10;;;;;;;17.68;84.60;100898.53;4992469;28;20038;-69
2023/09/09 03:35:50;;;;;;;0.95;0.10;;;;;;;17.57;86.25;100897.94;4991953;28;20373;-69
2023/09/09 03:38:16;;;;;;;0.52;0.20;;;;;;;17.61;85.86;100893.13;4988423;28;20368;-69
2023/09/09 03:40:44;;;;;;;0.40;0.13;;;;;;;17.65;84.93;100898.84;4984142;28;20046;-69
2023/09/09 03:43:11;;;;;;;0.30;0.10;;;;;;;17.63;85.08;100891.13;4987517;28;20041;-69
2023/09/09 03:45:36;;;;;;;0.10;0.10;;;;;;;17.62;85.56;100899.22;4990242;28;20396;-70
2023/09/09 03:48:04;;;;;;;0.88;0.20;;;;;;;17.79;84.17;100903.38;4990852;28;20034;-69
2023/09/09 03:50:29;;;;;;;1.42;0.20;;;;;;;17.97;82.96;100913.53;4987578;28;20065;-70
2023/09/09 03:52:55;;;;;;;0.20;0.10;;;;;;;18.16;81.17;100902.44;4987834;28;20472;-69
2023/09/09 03:55:20;;;;;;;0.68;0.17;;;;;;;18.33;80.65;100898.59;4984570;28;20049;-69
2023/09/09 03:57:46;;;;;;;0.20;0.10;;;;;;;18.36;80.30;100900.88;4988717;28;20034;-68
2023/09/09 04:00:12;;;;;;;0.28;0.10;;;;;;;18.26;80.43;100892.44;4987848;28;20083;-69
2023/09/09 04:02:38;;;;;;;0.80;0.20;;;;;;;18.25;80.75;100890.78;4988929;28;20066;-69
2023/09/09 04:05:03;;;;;;;0.40;0.10;;;;;;;18.29;80.29;100885.97;4986696;28;20128;-69
2023/09/09 04:07:33;;;;;;;0.35;0.10;;;;;;;18.33;79.96;100888.06;4987772;28;20448;-70
2023/09/09 04:09:59;;;;;;;0.17;0.10;;;;;;;18.38;79.60;100887.50;4986233;28;20065;-69
2023/09/09 04:12:24;;;;;;;0.30;0.10;;;;;;;18.39;79.22;100886.50;4990432;28;20034;-70
2023/09/09 04:14:50;;;;;;;0.65;0.17;;;;;;;18.34;79.48;100889.69;4986287;28;20473;-69
2023/09/09 04:17:16;;;;;;;0.10;0.10;;;;;;;18.20;80.34;100883.44;4986884;28;20038;-69
2023/09/09 04:19:41;;;;;;;0.20;0.10;;;;;;;18.13;80.82;100890.44;4988239;28;20037;-69
2023/09/09 04:22:06;;;;;;;0.80;0.20;;;;;;;18.10;81.03;100876.78;4987142;28;20049;-69
2023/09/09 04:24:32;;;;;;;0.30;0.20;;;;;;;17.98;82.08;100878.25;4990219;28;20030;-70
2023/09/09 04:26:57;;;;;;;0.30;0.10;;;;;;;17.89;83.07;100880.19;4987824;28;20040;-69
2023/09/09 04:29:23;;;;;;;0.40;0.10;;;;;;;17.88;82.61;100878.56;4988809;28;20035;-70
2023/09/09 04:31:48;;;;;;;0.57;0.00;;;;;;;17.83;82.88;100881.72;4989684;28;20136;-69
2023/09/09 04:34:14;;;;;;;0.30;0.10;;;;;;;17.74;83.52;100885.44;4988518;28;20823;-69
2023/09/09 04:36:41;;;;;;;0.30;0.10;;;;;;;17.71;83.98;100882.34;4987706;28;20479;-69
2023/09/09 04:39:06;;;;;;;0.63;0.10;;;;;;;17.66;83.85;100887.34;4987822;28;20069;-69
2023/09/09 04:41:31;;;;;;;0.60;0.10;;;;;;;17.66;84.11;100887.34;4987776;28;20034;-69
2023/09/09 04:43:57;;;;;;;0.30;0.10;;;;;;;17.67;83.80;100891.63;4988135;28;20030;-69
2023/09/09 04:46:22;;;;;;;0.20;0.10;;;;;;;17.63;83.85;100888.50;4981637;28;20173;-69
2023/09/09 04:48:52;;;;;;;0.20;0.10;;;;;;;17.57;84.75;100890.03;4978803;28;20121;-69
2023/09/09 04:51:17;;;;;;;0.43;0.10;;;;;;;17.49;84.84;100889.28;4982895;28;20476;-69
2023/09/09 04:53:43;;;;;;;0.32;0.10;;;;;;;17.27;86.67;100890.97;4988217;28;20034;-69
2023/09/09 04:56:08;;;;;;;0.65;0.30;;;;;;;17.08;87.67;100880.94;4986551;28;20093;-69
2023/09/09 04:58:34;;;;;;;0.55;0.17;;;;;;;17.02;88.31;100881.63;4985299;28;20093;-69
2023/09/09 05:01:00;;;;;;;0.82;0.10;;;;;;;16.89;88.63;100883.06;4988149;28;20031;-69
2023/09/09 05:03:25;;;;;;;0.30;0.10;;;;;;;16.88;89.51;100883.22;4989665;28;20042;-69
2023/09/09 05:05:51;;;;;;;0.20;0.10;;;;;;;16.87;88.76;100885.03;4986756;28;20049;-69
2023/09/09 05:08:16;;;;;;;0.43;0.10;;;;;;;17.02;88.99;100881.63;4986526;28;20049;-68
2023/09/09 05:10:42;;;;;;;0.40;0.10;;;;;;;17.15;88.23;100881.84;4985762;28;20185;-69
2023/09/09 05:13:07;;;;;;;1.15;0.20;;;;;;;17.24;87.50;100878.16;4987976;28;20076;-68
2023/09/09 05:15:33;;;;;;;0.52;0.10;;;;;;;17.34;87.47;100880.56;4985176;28;20494;-68
2023/09/09 05:17:58;;;;;;;0.20;0.05;;;;;;;17.41;86.50;100877.03;4989400;28;20400;-68
2023/09/09 05:20:24;;;;;;;2.38;0.13;;;;;;;17.46;86.58;100874.69;4988635;28;20038;-69
2023/09/09 05:22:50;;;;;;;0.38;0.10;;;;;;;17.50;86.35;100875.13;4988227;28;20030;-69
2023/09/09 05:25:15;;;;;;;0.65;0.15;;;;;;;17.55;86.28;100875.41;4985819;28;20282;-69
2023/09/09 05:27:41;;;;;;;0.40;0.10;;;;;;;17.60;85.94;100880.94;4987560;28;20096;-68
2023/09/09 05:30:07;;;;;;;0.52;0.22;;;;;;;17.68;85.40;100874.81;4983046;28;20026;-69
2023/09/09 05:32:34;;;;;;;0.20;0.10;;;;;;;17.78;84.99;100883.28;4984497;28;20030;-68
2023/09/09 05:34:59;;;;;;;0.20;0.10;;;;;;;17.83;84.95;100880.91;4985208;28;20027;-69
2023/09/09 05:37:28;;;;;;;1.02;0.10;;;;;;;17.86;84.79;100885.81;4982288;28;20031;-68
2023/09/09 05:39:54;;;;;;;0.35;0.20;;;;;;;17.92;84.49;100890.38;4984678;28;20042;-69
2023/09/09 05:42:19;;;;;;;0.50;0.10;;;;;;;17.96;84.00;100888.19;4984684;28;20034;-69
2023/09/09 05:44:45;;;;;;;0.68;0.10;;;;;;;18.03;84.46;100887.25;4984853;28;20030;-69
2023/09/09 05:47:10;;;;;;;0.30;0.10;;;;;;;18.03;84.44;100889.06;4980556;28;20035;-67
2023/09/09 05:49:36;;;;;;;0.40;0.10;;;;;;;18.10;84.53;100893.44;4985021;28;20460;-67
2023/09/09 05:52:02;;;;;;;0.40;0.10;;;;;;;18.18;83.83;100890.72;4987649;28;20061;-67
2023/09/09 05:54:27;;;;;;;0.55;0.20;;;;;;;18.33;83.91;100890.69;4986479;28;20034;-67
2023/09/09 05:56:53;;;;;;;0.20;0.10;;;;;;;18.41;83.32;100902.97;4985463;28;20420;-67
2023/09/09 05:59:19;;;;;;;0.82;0.20;;;;;;;18.48;84.22;100891.47;4984662;28;20423;-67
2023/09/09 06:01:44;;;;;;;0.60;0.10;;;;;;;18.49;84.69;100895.72;4981717;28;20081;-68
2023/09/09 06:04:09;;;;;;;0.22;0.10;;;;;;;18.55;84.07;100894.19;4989561;28;20031;-67
2023/09/09 06:06:35;;;;;;;1.20;0.10;;;;;;;18.78;82.20;100884.31;4987508;28;20094;-67
2023/09/09 06:09:01;;;;;;;0.30;0.10;;;;;;;18.93;81.72;100888.69;4985661;28;20042;-67
2023/09/09 06:11:26;;;;;;;0.32;0.17;;;;;;;19.13;79.81;100885.25;4982373;28;20100;-67
2023/09/09 06:13:51;;;;;;;0.45;0.03;;;;;;;19.26;80.02;100889.00;4986517;28;20348;-67
2023/09/09 06:16:17;;;;;;;1.65;0.10;;;;;;;19.44;78.86;100891.97;4986893;28;20042;-68
2023/09/09 06:18:43;;;;;;;0.38;0.13;;;;;;;19.62;78.25;100894.19;4989988;28;20038;-66
2023/09/09 06:21:08;;;;;;;0.17;0.10;;;;;;;19.67;78.24;100897.06;4990150;28;20443;-67
2023/09/09 06:23:35;;;;;;;1.25;0.10;;;;;;;19.55;77.78;100894.94;4988157;28;20034;-67
2023/09/09 06:26:01;;;;;;;0.25;0.10;;;;;;;19.48;78.48;100899.34;4985215;28;20129;-67
2023/09/09 06:28:26;;;;;;;0.32;0.10;;;;;;;19.53;78.39;100896.16;4988040;28;20519;-67
2023/09/09 06:30:51;;;;;;;0.13;0.05;;;;;;;19.60;78.47;100898.84;4985978;28;20030;-67
2023/09/09 06:33:17;;;;;;;0.40;0.10;;;;;;;19.63;78.33;100895.81;4988333;28;20037;-66
2023/09/09 06:35:52;;;;;;;0.70;0.10;;;;;;;19.77;76.05;100900.19;4985553;28;20102;-67
2023/09/09 06:38:17;;;;;;;0.40;0.10;;;;;;;19.88;75.57;100907.56;4988037;28;20553;-66
2023/09/09 06:40:44;;;;;;;0.38;0.10;;;;;;;20.05;75.59;100900.94;4988480;28;20038;-67
2023/09/09 06:43:10;;;;;;;0.73;0.05;;;;;;;20.16;76.00;100903.03;4985771;28;20378;-67
2023/09/09 06:45:36;;;;;;;1.23;0.10;;;;;;;20.26;76.00;100915.09;4984386;28;20045;-67
2023/09/09 06:48:03;;;;;;;0.17;0.08;;;;;;;20.34;76.39;100918.34;4987861;28;20031;-67
2023/09/09 06:50:29;;;;;;;0.30;0.15;;;;;;;20.41;76.75;100923.72;4990848;28;20470;-67
2023/09/09 06:52:54;;;;;;;0.50;0.10;;;;;;;20.51;76.19;100918.88;4990042;28;20177;-67
2023/09/09 06:55:19;;;;;;;0.95;0.10;;;;;;;20.65;75.94;100917.91;4986976;28;20395;-66
2023/09/09 06:57:45;;;;;;;0.35;0.10;;;;;;;20.78;75.57;100917.94;4990017;28;20038;-67
2023/09/09 07:00:11;;;;;;;0.28;0.10;;;;;;;20.95;73.79;100917.56;4990215;28;20045;-66
2023/09/09 07:02:36;;;;;;;0.52;0.10;;;;;;;21.03;74.26;100920.81;4988443;28;20042;-67
2023/09/09 07:05:03;;;;;;;0.28;0.10;;;;;;;21.17;74.24;100919.84;4993506;28;20074;-67
2023/09/09 07:07:28;;;;;;;0.40;0.10;;;;;;;21.27;74.73;100921.28;4991480;28;20057;-67
2023/09/09 07:09:54;;;;;;;0.43;0.10;;;;;;;21.34;73.97;100922.91;4991735;28;20480;-67
2023/09/09 07:12:19;;;;;;;0.35;0.20;;;;;;;21.48;73.50;100927.19;4984528;28;20121;-67
2023/09/09 07:14:45;;;;;;;1.35;0.17;;;;;;;21.59;74.14;100925.75;4988912;28;20114;-67
2023/09/09 07:17:10;;;;;;;0.40;0.10;;;;;;;21.63;73.73;100920.88;4986043;28;20023;-67
2023/09/09 07:19:36;;;;;;;1.02;0.10;;;;;;;21.73;73.15;100926.56;4987005;28;20030;-67
2023/09/09 07:22:01;;;;;;;0.50;0.10;;;;;;;21.94;71.76;100921.00;4988453;28;20084;-67
2023/09/09 07:24:26;;;;;;;1.30;0.20;;;;;;;22.13;69.81;100922.81;4990179;28;20121;-67
2023/09/09 07:26:52;;;;;;;0.65;0.20;;;;;;;22.23;69.73;100927.66;4990755;28;20042;-67
2023/09/09 07:29:17;;;;;;;0.30;0.10;;;;;;;22.42;68.96;100926.78;4990878;28;20030;-67
2023/09/09 07:31:43;;;;;;;0.60;0.20;;;;;;;22.56;69.06;100922.22;4991061;28;20049;-66
2023/09/09 07:34:08;;;;;;;0.75;0.17;;;;;;;22.58;69.69;100924.69;4992741;28;20031;-67
2023/09/09 07:36:34;;;;;;;0.30;0.17;;;;;;;22.73;67.72;100933.16;4991333;28;20073;-67
2023/09/09 07:39:00;;;;;;;0.43;0.10;;;;;;;22.90;66.61;100925.53;4987244;28;20034;-67
2023/09/09 07:41:25;;;;;;;0.20;0.10;;;;;;;22.97;68.03;100923.66;4988469;28;20467;-66
2023/09/09 07:43:51;;;;;;;0.30;0.10;;;;;;;23.02;68.09;100927.31;4988075;28;20031;-67
2023/09/09 07:46:16;;;;;;;0.22;0.20;;;;;;;23.06;66.95;100927.69;4990223;28;20688;-66
2023/09/09 07:48:42;;;;;;;0.40;0.10;;;;;;;23.10;67.02;100934.19;4987638;28;20480;-67
2023/09/09 07:51:07;;;;;;;0.30;0.10;;;;;;;23.15;67.17;100935.19;4990804;28;20052;-68
2023/09/09 07:53:33;;;;;;;0.28;0.10;;;;;;;23.21;68.48;100936.13;4984518;28;20051;-68
2023/09/09 07:55:58;;;;;;;0.28;0.10;;;;;;;23.33;66.63;100929.09;4994759;28;20027;-68
2023/09/09 07:58:24;;;;;;;0.40;0.13;;;;;;;23.44;66.52;100931.06;4992009;28;20034;-68
2023/09/09 08:00:58;;;;;;;0.22;0.03;;;;;;;23.54;67.22;100921.81;4982775;28;20449;-68
2023/09/09 08:03:24;;;;;;;0.60;0.20;;;;;;;23.57;66.70;100929.34;4985896;28;20042;-68
2023/09/09 08:05:54;;;;;;;1.15;0.10;;;;;;;23.64;67.16;100930.88;4989827;28;20042;-68
2023/09/09 08:08:19;;;;;;;0.25;0.10;;;;;;;23.78;67.52;100936.91;4989235;28;20383;-68
2023/09/09 08:10:44;;;;;;;0.30;0.10;;;;;;;23.87;65.00;100934.78;4987575;28;20038;-68
2023/09/09 08:13:10;;;;;;;0.30;0.10;;;;;;;23.95;64.77;100929.16;4986629;28;20027;-68
2023/09/09 08:15:36;;;;;;;0.30;0.13;;;;;;;24.02;65.42;100930.72;4985378;28;20065;-68
2023/09/09 08:18:01;;;;;;;0.40;0.17;;;;;;;24.09;66.75;100923.50;4990277;28;20026;-68
2023/09/09 08:20:27;;;;;;;0.38;0.10;;;;;;;24.20;67.01;100929.06;4988897;28;20042;-68
2023/09/09 08:22:52;;;;;;;0.43;0.10;;;;;;;24.19;67.72;100922.13;4990637;28;20042;-68
2023/09/09 08:25:18;;;;;;;0.50;0.10;;;;;;;24.16;67.07;100926.03;4982826;28;20035;-68
2023/09/09 08:27:43;;;;;;;0.30;0.10;;;;;;;24.29;67.28;100933.09;4982068;28;20038;-68
2023/09/09 08:30:09;;;;;;;0.40;0.20;;;;;;;24.38;67.45;100931.75;4990698;28;20423;-68
2023/09/09 08:32:35;;;;;;;0.73;0.10;;;;;;;24.46;67.57;100921.63;4987005;28;20034;-68
2023/09/09 08:35:00;;;;;;;0.50;0.20;;;;;;;24.52;67.51;100927.91;4986939;28;20022;-68
2023/09/09 08:37:26;;;;;;;0.50;0.10;;;;;;;24.46;64.68;100923.47;4989319;28;20072;-68
2023/09/09 08:39:55;;;;;;;0.30;0.10;;;;;;;24.54;64.12;100919.69;4987241;28;20113;-68
2023/09/09 08:42:31;;;;;;;0.17;0.10;;;;;;;24.55;65.35;100922.13;4983565;28;20062;-68
2023/09/09 08:45:14;;;;;;;0.10;0.10;;;;;;;24.53;62.50;100921.53;4992434;28;20373;-68
2023/09/09 08:47:41;;;;;;;1.40;0.20;;;;;;;24.60;64.40;100916.91;4990053;28;20070;-69
2023/09/09 08:50:09;;;;;;;0.30;0.10;;;;;;;24.55;64.94;100916.00;4991348;28;20858;-69
2023/09/09 08:52:35;;;;;;;0.38;0.10;;;;;;;24.63;64.80;100919.13;4990684;28;20113;-69
2023/09/09 08:55:01;;;;;;;0.22;0.10;;;;;;;24.72;64.80;100927.63;4990200;28;20030;-69
2023/09/09 08:57:28;;;;;;;0.47;0.10;;;;;;;24.62;64.89;100917.50;4988906;28;20053;-68
2023/09/09 08:59:55;;;;;;;1.75;0.10;;;;;;;24.61;64.93;100917.72;4988394;28;20034;-68
2023/09/09 09:02:21;;;;;;;0.55;0.10;;;;;;;24.61;64.91;100913.22;4987457;28;20044;-69
2023/09/09 09:04:47;;;;;;;0.32;0.05;;;;;;;24.52;65.03;100909.25;4988593;28;20038;-68
2023/09/09 09:07:13;;;;;;;0.55;0.20;;;;;;;24.42;65.51;100911.63;4984265;28;20034;-69
2023/09/09 09:09:39;;;;;;;0.60;0.10;;;;;;;24.37;65.42;100914.16;4987343;28;20141;-68
2023/09/09 09:12:05;;;;;;;0.30;0.10;;;;;;;24.26;65.73;100912.25;4983743;28;20531;-68
2023/09/09 09:14:30;;;;;;;1.23;0.20;;;;;;;24.22;64.82;100911.03;4984196;28;20892;-68
2023/09/09 09:16:56;;;;;;;0.20;0.10;;;;;;;24.30;65.02;100914.25;4982503;28;20054;-68
2023/09/09 09:19:30;;;;;;;0.47;0.10;;;;;;;24.27;63.21;100909.38;4985813;28;20030;-68
2023/09/09 09:21:58;;;;;;;0.10;0.00;;;;;;;24.28;63.92;100908.31;4986603;28;20397;-68
2023/09/09 09:24:41;;;;;;;0.38;0.10;;;;;;;24.31;61.78;100913.19;4985105;28;20080;-68
2023/09/09 09:27:10;;;;;;;0.43;0.10;;;;;;;24.29;62.79;100907.28;4981962;28;20041;-68
2023/09/09 09:29:45;;;;;;;0.25;0.20;;;;;;;24.51;60.55;100899.63;4987999;28;20108;-68
2023/09/09 09:32:12;;;;;;;0.50;0.10;;;;;;;24.53;62.06;100908.22;4980021;28;20053;-68
2023/09/09 09:34:38;;;;;;;0.35;0.17;;;;;;;24.38;62.68;100908.63;4985291;28;20037;-66
2023/09/09 09:37:10;;;;;;;0.50;0.20;;;;;;;24.29;62.06;100906.47;4982853;28;20453;-67
2023/09/09 09:39:36;;;;;;;0.77;0.20;;;;;;;24.31;62.63;100909.72;4984123;28;20131;-67
2023/09/09 09:42:03;;;;;;;0.20;0.10;;;;;;;24.39;62.82;100918.22;4987642;28;20073;-67
2023/09/09 09:44:28;;;;;;;0.10;0.10;;;;;;;24.29;62.42;100909.13;4981428;28;20550;-67
2023/09/09 09:47:15;;;;;;;0.20;0.10;;;;;;;24.24;62.40;100911.63;4981274;28;20080;-67
2023/09/09 09:49:45;;;;;;;0.43;0.10;;;;;;;24.31;63.34;100910.53;4985659;28;20045;-67
2023/09/09 09:52:22;;;;;;;0.30;0.10;;;;;;;24.37;60.30;100909.66;4980828;28;20023;-67
2023/09/09 09:54:50;;;;;;;0.28;0.10;;;;;;;24.41;59.11;100907.34;4984785;28;20027;-67
2023/09/09 09:57:17;;;;;;;0.88;0.13;;;;;;;24.65;58.58;100903.72;4978914;28;20047;-67
2023/09/09 09:59:43;;;;;;;0.40;0.10;;;;;;;24.64;60.29;100899.44;4984099;28;20061;-67
2023/09/09 10:02:10;;;;;;;0.30;0.13;;;;;;;24.91;58.55;100913.19;4982031;28;20133;-67
2023/09/09 10:04:42;;;;;;;0.35;0.10;;;;;;;25.05;58.23;100903.16;4979567;28;20034;-67
2023/09/09 10:07:13;;;;;;;0.40;0.10;;;;;;;24.84;58.58;100901.81;4987263;28;20089;-67
2023/09/09 10:09:47;;;;;;;0.38;0.10;;;;;;;24.82;59.10;100906.56;4978141;28;20035;-67
2023/09/09 10:12:48;;;;;;;0.65;0.15;;;;;;;24.92;56.69;100901.50;4981228;28;20034;-67
2023/09/09 10:15:15;;;;;;;0.57;0.10;;;;;;;24.85;59.41;100902.63;4984929;28;20026;-67
2023/09/09 10:17:42;;;;;;;0.28;0.10;;;;;;;24.79;59.64;100901.69;4979245;28;20048;-67
2023/09/09 10:20:09;;;;;;;0.43;0.10;;;;;;;24.98;59.00;100908.63;4979390;28;20034;-68
2023/09/09 10:22:36;;;;;;;0.60;0.20;;;;;;;25.13;57.53;100902.81;4982725;28;20768;-67
2023/09/09 10:25:05;;;;;;;0.65;0.10;;;;;;;25.37;57.24;100895.69;4980307;28;20053;-68
2023/09/09 10:27:32;;;;;;;0.10;0.10;;;;;;;25.51;55.60;100882.94;4980186;28;20049;-69
2023/09/09 10:29:58;;;;;;;0.30;0.10;;;;;;;25.86;53.07;100886.38;4986612;28;20053;-68
2023/09/09 10:32:25;;;;;;;0.30;0.03;;;;;;;26.01;53.49;100883.19;4983771;28;20476;-67
2023/09/09 10:34:53;;;;;;;0.57;0.10;;;;;;;25.95;53.36;100889.50;4987194;28;20058;-66
2023/09/09 10:37:19;;;;;;;0.52;0.10;;;;;;;25.87;53.68;100888.00;4981529;28;20163;-67
2023/09/09 10:39:47;;;;;;;0.52;0.10;;;;;;;25.98;53.51;100887.19;4990120;28;20061;-67
2023/09/09 10:42:15;;;;;;;0.60;0.20;;;;;;;26.01;54.08;100876.00;4982819;28;20031;-67
2023/09/09 10:44:40;;;;;;;0.30;0.10;;;;;;;25.92;54.30;100880.13;4985599;28;20081;-66
2023/09/09 10:47:08;;;;;;;0.57;0.10;;;;;;;26.25;53.67;100886.63;4988639;28;20030;-67
2023/09/09 10:49:34;;;;;;;0.40;0.10;;;;;;;26.19;54.27;100884.91;4989636;28;20058;-66
2023/09/09 10:51:59;;;;;;;0.65;0.10;;;;;;;25.97;52.53;100874.88;4994212;28;20514;-66
2023/09/09 10:54:26;;;;;;;0.40;0.13;;;;;;;26.01;54.22;100877.84;4990813;28;20460;-66
2023/09/09 10:57:01;;;;;;;0.20;0.10;;;;;;;25.94;54.33;100872.69;4992335;28;20034;-66
2023/09/09 10:59:29;;;;;;;0.40;0.17;;;;;;;26.19;52.14;100871.53;4993042;28;20041;-67
2023/09/09 11:02:24;;;;;;;0.32;0.10;;;;;;;26.21;52.98;100872.94;4991405;28;20065;-66
2023/09/09 11:05:10;;;;;;;0.35;0.10;;;;;;;26.13;52.89;100873.31;4989956;28;20042;-66
2023/09/09 11:07:44;;;;;;;0.80;0.10;;;;;;;26.27;49.74;100866.66;4988029;28;20149;-66
2023/09/09 11:10:14;;;;;;;0.50;0.10;;;;;;;26.28;52.36;100870.13;4984668;28;20065;-67
2023/09/09 11:12:49;;;;;;;0.50;0.10;;;;;;;26.32;49.81;100868.63;4989206;28;20030;-66
2023/09/09 11:15:15;;;;;;;0.20;0.10;;;;;;;26.24;53.19;100867.13;4983072;28;20046;-69
2023/09/09 11:17:44;;;;;;;0.15;0.10;;;;;;;26.12;53.86;100871.69;4997052;28;20097;-66
2023/09/09 11:20:12;;;;;;;0.17;0.03;;;;;;;25.95;54.84;100862.81;4987967;28;20029;-66
2023/09/09 11:22:40;;;;;;;1.95;0.10;;;;;;;25.92;54.30;100864.09;4989149;28;20078;-66